Drummond Island, Michigan
Current Conditions -  °F | °C
As of 5:35 PM on Monday 20 Oct 2014 (Local Time) from KDRM Reporting Station
Overcast Overcast  
Wind Chill: 47°   Ceiling: 1300
Heat Index: 49°   Visibility: 10mi
Dew Point: 45°   Wind: 5mph
Humidity: 87%   Direction: 300°WNW
Pressure: 29.78"   Gusts: NA
Location:  46°N, 83.7°W
Report Text: KDRM 202135Z AUTO 30004KT 10SM BKN013 OVC026 09/07 A2978 RMK AO2 T00940074
Loading
Personal Weather Stations






























Interactive Weather Map
Tropical Storm Tracking
New forecast layout! Learn more

10-Day Weather Forecast

Advertisements
Track Severe Weather on mobile